Ocean, New Jersey
Current Conditions -  °F | °C
As of 9:35 AM on Thursday 18 Dec 2014 (Local Time) from KBLM Reporting Station
Broken Clouds Broken Clouds  
Wind Chill: 29°   Ceiling: 4100
Heat Index: 37°   Visibility: 10mi
Dew Point: 21°   Wind: 14mph
Humidity: 52%   Direction: 280°W
Pressure: 30.03"   Gusts: 18mph
Location:  40.2492°N, 74.0521°W
Report Text: KBLM 181435Z AUTO 28012G16KT 10SM BKN041 03/M06 A3003 RMK AO1
Loading
Personal Weather Stations






























Interactive Weather Map New forecast layout! Learn more

10-Day Weather Forecast

Advertisements
Track Severe Weather on mobile